Date,TemperatureHighF,TemperatureAvgF,TemperatureLowF,DewpointHighF,DewpointAvgF,DewpointLowF,HumidityHigh,HumidityAvg,HumidityLow,PressureMaxIn,PressureMinIn,WindSpeedMaxMPH,WindSpeedAvgMPH,GustSpeedMaxMPH,PrecipitationSumIn
2013-9-1,86.7,73.6,65.3,78.0,71.5,65.0,99,94,73,29.58,29.52,8,1,8,0.09
2013-9-2,81.9,70.8,64.0,78.5,70.3,63.6,99,98,79,29.55,29.42,13,1,13,0.69
2013-9-3,81.0,66.6,59.2,67.2,61.7,56.4,99,86,52,29.60,29.45,14,2,14,0.00
2013-9-4,85.3,68.4,57.6,64.6,57.5,54.2,99,72,39,29.69,29.59,14,3,14,0.00
2013-9-5,75.2,63.6,52.0,60.9,50.6,38.6,98,65,36,29.88,29.62,16,4,16,0.00
2013-9-6,76.3,55.6,42.3,51.5,43.6,38.6,97,68,36,29.97,29.81,8,2,8,0.00
2013-9-7,80.1,61.3,48.0,64.0,54.4,45.5,97,80,41,29.83,29.59,7,1,7,0.00
2013-9-8,75.6,64.2,50.9,66.2,53.5,38.6,99,72,38,29.82,29.53,14,4,14,0.05
2013-9-9,51.8,46.5,42.4,40.8,39.9,38.6,91,78,61,29.92,29.81,6,1,6,0.00
2013-9-13,72.5,62.4,52.7,61.7,53.7,46.7,85,74,62,29.57,29.40,21,7,21,0.01
2013-9-14,67.8,55.3,48.2,48.7,44.9,42.1,83,69,47,29.82,29.56,16,5,16,0.00
2013-9-15,72.0,55.9,44.1,57.3,48.5,40.9,97,78,52,29.89,29.77,8,2,8,0.00
2013-9-16,68.7,57.6,49.8,55.5,50.7,41.0,99,79,56,29.97,29.74,17,3,17,0.02
2013-9-17,70.0,51.8,38.3,45.1,40.3,35.7,98,68,36,30.13,29.97,9,2,9,0.00
2013-9-18,77.0,55.4,41.0,54.1,47.4,40.7,99,79,41,30.04,29.87,9,1,9,0.00
2013-9-19,81.9,61.4,49.6,59.4,52.1,46.1,99,75,42,29.88,29.77,8,2,8,0.00
2013-9-20,82.8,63.7,50.7,64.0,57.0,50.5,99,82,49,29.79,29.68,8,2,8,0.00
2013-9-21,76.6,63.2,54.0,64.9,59.6,53.7,99,89,63,29.69,29.36,14,3,14,0.27
2013-9-22,63.5,56.8,50.4,60.0,48.4,38.7,99,75,53,29.62,29.35,17,4,17,0.05
2013-9-23,66.6,52.6,44.1,44.3,39.0,35.4,79,61,42,30.42,29.60,20,6,20,0.00
2013-9-24,76.5,57.0,43.2,46.5,39.7,36.7,82,55,32,29.75,29.59,18,5,18,0.00
2013-9-25,77.2,57.3,43.2,56.3,46.8,39.6,99,71,39,29.68,29.59,11,2,11,0.00
2013-9-26,72.5,56.3,46.9,56.7,50.9,46.7,99,85,52,29.83,29.67,8,1,8,0.00
2013-9-27,71.2,55.1,46.0,55.8,50.4,45.8,99,86,56,29.98,29.83,9,1,9,0.01
2013-9-28,78.3,57.7,46.2,58.8,50.3,46.0,99,81,39,30.04,29.95,8,1,8,0.00
2013-9-29,77.9,58.3,47.7,59.6,52.2,47.4,99,84,48,29.95,29.78,9,1,9,0.00
2013-9-30,78.3,58.8,48.4,60.9,53.1,48.1,99,84,50,29.80,29.68,7,1,7,0.01